Time;durP1;ratioP1;P1;durP2;ratioP2;P2;SDS_P1;SDS_P2;PMS_P1;PMS_P2;Temp;Humidity;BMP_temperature;BMP_pressure;BME280_temperature;BME280_humidity;BME280_pressure;Samples;Min_cycle;Max_cycle;Signal;HPM_P1;HPM_P2
2022/04/22 00:01:20;;;;;;;9.02;7.28;;;11.30;99.90;;;;;;4973544;28;20497;-72
2022/04/22 00:03:46;;;;;;;11.45;8.32;;;11.70;99.90;;;;;;4973802;28;20154;-72
2022/04/22 00:06:12;;;;;;;9.45;7.53;;;11.50;99.90;;;;;;4973417;28;20031;-72
2022/04/22 00:08:37;;;;;;;10.05;6.57;;;11.40;99.90;;;;;;4973058;28;20022;-72
2022/04/22 00:13:47;;;;;;;;;;;11.50;94.10;;;;;;4993534;28;20037;-72
2022/04/22 00:16:12;;;;;;;12.23;9.23;;;11.30;99.90;;;;;;4992594;28;19913;-72
2022/04/22 00:18:38;;;;;;;12.57;8.07;;;11.60;99.90;;;;;;4992850;28;20065;-72
2022/04/22 00:21:04;;;;;;;10.15;8.32;;;11.20;99.90;;;;;;4991040;28;20065;-72
2022/04/22 00:23:30;;;;;;;12.20;9.30;;;11.40;99.90;;;;;;4992363;28;20467;-72
2022/04/22 00:25:58;;;;;;;8.63;7.22;;;11.40;99.90;;;;;;4974171;28;20027;-72
2022/04/22 00:28:23;;;;;;;12.18;8.23;;;11.30;99.90;;;;;;4986800;28;20382;-73
2022/04/22 00:30:49;;;;;;;11.30;8.77;;;11.20;99.90;;;;;;4992748;28;20023;-72
2022/04/22 00:33:15;;;;;;;9.05;7.60;;;11.30;99.90;;;;;;4992279;28;20412;-72
2022/04/22 00:35:41;;;;;;;12.77;9.07;;;11.20;98.20;;;;;;4992477;28;20022;-72
2022/04/22 00:38:07;;;;;;;9.70;8.70;;;11.00;99.90;;;;;;4991712;28;20498;-72
2022/04/22 00:40:32;;;;;;;10.07;8.60;;;11.30;99.90;;;;;;4976910;28;20031;-73
2022/04/22 00:42:59;;;;;;;14.50;8.90;;;10.90;99.90;;;;;;4972367;28;20078;-72
2022/04/22 00:45:24;;;;;;;11.40;8.43;;;11.00;99.90;;;;;;4972911;28;20428;-72
2022/04/22 00:47:50;;;;;;;11.68;8.23;;;11.00;99.90;;;;;;4972917;28;20038;-72
2022/04/22 00:50:15;;;;;;;12.43;8.68;;;11.00;99.90;;;;;;4972443;28;20403;-72
2022/04/22 00:52:41;;;;;;;11.50;10.18;;;10.70;99.90;;;;;;4972449;28;20074;-72
2022/04/22 00:55:08;;;;;;;12.27;10.35;;;11.00;99.90;;;;;;4972268;28;20030;-72
2022/04/22 00:57:34;;;;;;;10.88;9.77;;;10.90;99.90;;;;;;4986623;28;20081;-72
2022/04/22 01:00:01;;;;;;;9.93;8.90;;;10.80;99.90;;;;;;4991728;28;20019;-72
2022/04/22 01:02:26;;;;;;;12.70;8.68;;;10.90;99.90;;;;;;4992021;28;20030;-72
2022/04/22 01:10:20;;;;;;;14.18;9.25;;;10.80;99.90;;;;;;4978168;28;20062;-72
2022/04/22 01:12:46;;;;;;;13.48;9.20;;;10.80;99.90;;;;;;4972613;28;20038;-72
2022/04/22 01:15:11;;;;;;;11.23;9.50;;;10.60;99.90;;;;;;4971977;28;20029;-72
2022/04/22 01:17:37;;;;;;;12.02;9.57;;;10.80;99.90;;;;;;4972164;28;20118;-72
2022/04/22 01:20:05;;;;;;;10.95;9.02;;;10.70;99.90;;;;;;4971688;28;20436;-72
2022/04/22 01:22:30;;;;;;;15.75;9.38;;;10.80;99.90;;;;;;4973300;28;20105;-72
2022/04/22 01:25:00;;;;;;;14.48;10.55;;;10.60;98.00;;;;;;4971858;28;20035;-72
2022/04/22 01:27:29;;;;;;;11.18;9.55;;;10.70;99.90;;;;;;4972440;28;20435;-72
2022/04/22 01:29:56;;;;;;;13.13;9.90;;;10.60;97.80;;;;;;4972279;28;20464;-72
2022/04/22 01:32:22;;;;;;;12.73;9.40;;;10.60;99.90;;;;;;4972641;28;20030;-72
2022/04/22 01:34:48;;;;;;;13.73;9.77;;;10.60;99.90;;;;;;4972565;28;20031;-72
2022/04/22 01:37:13;;;;;;;10.90;8.25;;;10.70;99.90;;;;;;4977624;28;20383;-72
2022/04/22 01:39:39;;;;;;;14.35;8.45;;;;;;;;;;4991374;28;20479;-72
2022/04/22 01:42:06;;;;;;;14.60;8.85;;;10.50;99.90;;;;;;4991011;28;20533;-72
2022/04/22 01:44:32;;;;;;;11.15;8.70;;;10.50;99.90;;;;;;4989573;28;20037;-72
2022/04/22 01:46:57;;;;;;;12.32;7.82;;;10.70;99.90;;;;;;4989474;28;20030;-73
2022/04/22 01:49:23;;;;;;;11.23;8.52;;;10.40;99.90;;;;;;4990953;28;20018;-72
2022/04/22 01:51:48;;;;;;;12.60;8.55;;;10.50;99.90;;;;;;4987617;28;20025;-72
2022/04/22 01:54:16;;;;;;;11.45;8.98;;;10.40;99.90;;;;;;4970602;28;20042;-72
2022/04/22 01:56:41;;;;;;;10.00;8.10;;;10.30;99.90;;;;;;4971526;28;20483;-72
2022/04/22 01:59:07;;;;;;;10.60;7.97;;;10.50;99.90;;;;;;4971224;28;20037;-72
2022/04/22 02:01:32;;;;;;;13.00;8.38;;;10.50;99.90;;;;;;4971686;28;20030;-72
2022/04/22 02:03:57;;;;;;;14.15;9.13;;;10.30;99.90;;;;;;4971070;28;20089;-72
2022/04/22 02:06:23;;;;;;;13.45;9.75;;;10.40;99.90;;;;;;4971205;28;20038;-72
2022/04/22 02:08:48;;;;;;;9.98;8.60;;;10.40;99.90;;;;;;4990569;28;20109;-72
2022/04/22 02:11:15;;;;;;;13.88;8.65;;;10.50;99.90;;;;;;4990530;28;20068;-72
2022/04/22 02:13:40;;;;;;;9.77;8.40;;;9.90;99.90;;;;;;4991143;28;20033;-72
2022/04/22 02:16:07;;;;;;;10.07;8.50;;;10.30;99.00;;;;;;4990369;28;20030;-72
2022/04/22 02:18:36;;;;;;;12.20;9.77;;;;;;;;;;4990641;28;20018;-73
2022/04/22 02:21:03;;;;;;;13.23;9.85;;;10.20;99.90;;;;;;4989863;28;20093;-73
2022/04/22 02:23:28;;;;;;;10.50;9.13;;;10.50;99.90;;;;;;4974764;28;20031;-72
2022/04/22 02:25:54;;;;;;;12.13;7.90;;;10.30;99.90;;;;;;4989692;28;20026;-72
2022/04/22 02:28:32;;;;;;;11.25;8.40;;;;;;;;;;4990382;28;20065;-72
2022/04/22 02:31:18;;;;;;;13.57;7.83;;;10.20;99.90;;;;;;4990275;28;20034;-72
2022/04/22 02:33:43;;;;;;;9.32;7.93;;;10.20;99.90;;;;;;4989902;28;20026;-72
2022/04/22 02:36:10;;;;;;;9.57;8.13;;;10.20;99.50;;;;;;4990309;28;20033;-72
2022/04/22 02:38:35;;;;;;;11.33;8.17;;;10.20;99.90;;;;;;4973368;28;20039;-72
2022/04/22 02:46:30;;;;;;;11.93;7.60;;;;;;;;;;4971164;28;20069;-72
2022/04/22 02:49:00;;;;;;;10.65;8.20;;;9.90;99.90;;;;;;4970420;28;20027;-72
2022/04/22 02:51:27;;;;;;;10.65;9.13;;;9.90;99.90;;;;;;4971153;28;20499;-72
2022/04/22 02:53:53;;;;;;;10.27;6.60;;;9.90;99.90;;;;;;4988539;28;20034;-72
2022/04/22 02:56:20;;;;;;;11.70;7.90;;;10.00;99.90;;;;;;4989885;28;20022;-72
2022/04/22 02:58:46;;;;;;;9.70;7.00;;;;;;;;;;4990620;28;20041;-72
2022/04/22 03:01:13;;;;;;;11.43;8.57;;;9.90;99.90;;;;;;4989951;28;20072;-72
2022/04/22 03:03:39;;;;;;;9.05;7.57;;;;;;;;;;4990017;28;20030;-72
2022/04/22 03:06:05;;;;;;;11.65;8.75;;;;;;;;;;4991927;28;20522;-72
2022/04/22 03:08:30;;;;;;;12.13;8.70;;;9.90;99.90;;;;;;4992120;28;20031;-72
2022/04/22 03:10:56;;;;;;;11.48;9.07;;;;;;;;;;4973851;28;20138;-72
2022/04/22 03:13:22;;;;;;;14.98;10.18;;;9.80;99.90;;;;;;4974521;28;20391;-72
2022/04/22 03:15:47;;;;;;;14.17;9.33;;;9.90;99.90;;;;;;4975596;28;20031;-72
2022/04/22 03:18:13;;;;;;;13.33;10.43;;;9.90;99.90;;;;;;4973782;28;20101;-72
2022/04/22 03:20:39;;;;;;;15.27;11.27;;;;;;;;;;4973169;28;20415;-72
2022/04/22 03:23:05;;;;;;;13.00;9.20;;;9.90;99.90;;;;;;4973995;28;20062;-72
2022/04/22 03:25:30;;;;;;;16.48;12.20;;;9.80;99.90;;;;;;4976468;28;20108;-72
2022/04/22 03:27:56;;;;;;;15.57;10.40;;;;;;;;;;4993168;28;20042;-72
2022/04/22 03:30:22;;;;;;;14.60;11.17;;;9.90;99.90;;;;;;4993778;28;20022;-72
2022/04/22 03:32:47;;;;;;;14.57;12.40;;;9.90;99.90;;;;;;4990341;28;20550;-72
2022/04/22 03:35:13;;;;;;;17.95;12.32;;;9.70;99.90;;;;;;4993318;28;20033;-72
2022/04/22 03:37:38;;;;;;;16.53;12.17;;;9.90;99.90;;;;;;4993456;28;20394;-72
2022/04/22 03:40:05;;;;;;;17.43;13.87;;;9.20;99.90;;;;;;4993206;28;20018;-72
2022/04/22 03:42:32;;;;;;;17.57;14.53;;;10.20;99.90;;;;;;4975695;28;20030;-72
2022/04/22 03:44:57;;;;;;;16.37;12.40;;;9.70;99.90;;;;;;4973819;28;20073;-72
2022/04/22 03:47:23;;;;;;;18.90;13.53;;;;;;;;;;4973606;28;20022;-72
2022/04/22 03:49:49;;;;;;;19.00;14.68;;;9.80;99.90;;;;;;4974618;28;20078;-72
2022/04/22 03:52:16;;;;;;;20.90;16.07;;;9.70;99.90;;;;;;4973575;28;20480;-72
2022/04/22 03:54:41;;;;;;;17.43;14.47;;;9.70;99.90;;;;;;4980743;28;20037;-72
2022/04/22 03:59:54;;;;;;;17.83;15.73;;;9.70;99.90;;;;;;4993614;28;20117;-71
2022/04/22 04:02:20;;;;;;;20.50;15.83;;;;;;;;;;4992875;28;20026;-72
2022/04/22 04:04:47;;;;;;;17.53;15.23;;;9.80;99.90;;;;;;4993172;28;20023;-71
2022/04/22 04:07:13;;;;;;;20.50;14.70;;;9.60;99.90;;;;;;4991429;28;20031;-71
2022/04/22 04:17:51;;;;;;;19.50;16.48;;;9.60;99.90;;;;;;4972772;28;20130;-72
2022/04/22 04:23:17;;;;;;;19.53;15.50;;;9.50;99.90;;;;;;4972822;28;20037;-71
2022/04/22 04:25:44;;;;;;;23.20;17.57;;;9.60;99.90;;;;;;4973337;28;20031;-71
2022/04/22 04:28:11;;;;;;;18.77;16.20;;;9.50;99.90;;;;;;4972932;28;20446;-71
2022/04/22 04:30:37;;;;;;;21.00;16.93;;;9.20;99.90;;;;;;4984093;28;20048;-72
2022/04/22 04:33:04;;;;;;;21.30;16.67;;;9.50;99.90;;;;;;4992370;28;20394;-71
2022/04/22 04:35:30;;;;;;;20.87;17.37;;;9.50;99.90;;;;;;4992770;28;20041;-72
2022/04/22 04:37:56;;;;;;;22.10;17.27;;;;;;;;;;4992198;28;20038;-72
2022/04/22 04:40:21;;;;;;;19.50;15.93;;;9.50;99.90;;;;;;4992277;28;20018;-72
2022/04/22 04:42:47;;;;;;;19.67;15.77;;;;;;;;;;4975291;28;20038;-72
2022/04/22 04:45:13;;;;;;;21.33;15.30;;;9.70;99.90;;;;;;4972288;28;20524;-72
2022/04/22 04:47:40;;;;;;;23.37;16.20;;;9.60;99.90;;;;;;4971696;28;20035;-72
2022/04/22 04:50:06;;;;;;;19.63;16.17;;;9.60;99.90;;;;;;4972561;28;20078;-72
2022/04/22 04:52:33;;;;;;;21.83;17.17;;;9.50;99.90;;;;;;4971481;28;20407;-71
2022/04/22 04:54:58;;;;;;;20.83;16.33;;;9.60;99.90;;;;;;4972639;28;20038;-71
2022/04/22 04:57:24;;;;;;;22.30;18.47;;;9.60;99.90;;;;;;4972606;28;20447;-72
2022/04/22 04:59:50;;;;;;;18.53;14.67;;;9.70;99.90;;;;;;4972251;28;20023;-72
2022/04/22 05:02:16;;;;;;;18.97;16.43;;;9.70;99.90;;;;;;4972335;28;20034;-72
2022/04/22 05:04:42;;;;;;;20.70;15.83;;;;;;;;;;4972648;28;20383;-72
2022/04/22 05:07:08;;;;;;;20.97;17.53;;;;;;;;;;4972167;28;20445;-72
2022/04/22 05:09:34;;;;;;;24.10;17.47;;;;;;;;;;4972460;28;20609;-72
2022/04/22 05:11:59;;;;;;;21.07;16.00;;;9.50;99.90;;;;;;4982506;28;20820;-71
2022/04/22 05:14:26;;;;;;;17.97;16.20;;;9.60;99.90;;;;;;4991510;28;20492;-72
2022/04/22 05:16:54;;;;;;;19.60;15.93;;;9.50;99.90;;;;;;4991899;28;20093;-72
2022/04/22 05:19:21;;;;;;;22.63;16.53;;;;;;;;;;4991760;28;20022;-72
2022/04/22 05:21:47;;;;;;;20.17;16.67;;;;;;;;;;4989835;28;20446;-71
2022/04/22 05:24:13;;;;;;;19.53;17.43;;;10.10;99.90;;;;;;4991213;28;20022;-71
2022/04/22 05:26:39;;;;;;;22.57;17.73;;;;;;;;;;4991689;28;20096;-72
2022/04/22 05:29:05;;;;;;;21.53;17.73;;;9.50;99.90;;;;;;4990843;28;20470;-72
2022/04/22 05:34:14;;;;;;;17.88;15.98;;;9.70;99.90;;;;;;4991049;28;20381;-71
2022/04/22 05:36:40;;;;;;;20.67;15.00;;;9.50;99.90;;;;;;4986604;28;20042;-72
2022/04/22 05:39:08;;;;;;;21.03;16.63;;;9.60;99.90;;;;;;4971777;28;20022;-72
2022/04/22 05:41:35;;;;;;;18.13;16.07;;;;;;;;;;4983997;28;20030;-71
2022/04/22 05:44:04;;;;;;;17.90;15.27;;;9.60;99.90;;;;;;4990341;28;20021;-72
2022/04/22 05:46:29;;;;;;;20.27;15.20;;;9.70;99.90;;;;;;4990984;28;20026;-71
2022/04/22 05:48:55;;;;;;;19.07;15.90;;;;;;;;;;4990709;28;20394;-72
2022/04/22 05:51:21;;;;;;;21.42;17.63;;;9.70;99.90;;;;;;4989670;28;20034;-71
2022/04/22 05:53:48;;;;;;;21.20;16.93;;;;;;;;;;4989741;28;20035;-71
2022/04/22 05:56:13;;;;;;;19.37;16.80;;;9.90;99.90;;;;;;4990579;28;20030;-72
2022/04/22 05:58:39;;;;;;;23.53;18.60;;;9.80;99.90;;;;;;4990508;28;20092;-70
2022/04/22 06:01:04;;;;;;;21.87;17.13;;;9.80;99.90;;;;;;4983860;28;20407;-72
2022/04/22 06:03:30;;;;;;;20.17;17.43;;;;;;;;;;4989414;28;20039;-72
2022/04/22 06:05:56;;;;;;;23.37;17.37;;;10.00;99.90;;;;;;4990508;28;20031;-72
2022/04/22 06:11:06;;;;;;;;;;;10.50;99.90;;;;;;4971322;28;20121;-71
2022/04/22 06:13:31;;;;;;;19.83;15.97;;;10.30;99.90;;;;;;4971859;28;19953;-71
2022/04/22 06:15:58;;;;;;;19.13;16.37;;;;;;;;;;4970528;28;20070;-73
2022/04/22 06:18:24;;;;;;;17.95;14.65;;;;;;;;;;4971783;28;20027;-69
2022/04/22 06:20:51;;;;;;;20.60;17.40;;;10.40;99.90;;;;;;4974558;28;20537;-69
2022/04/22 06:23:17;;;;;;;16.97;14.63;;;;;;;;;;4989950;28;20042;-69
2022/04/22 06:25:46;;;;;;;17.77;15.00;;;;;;;;;;4985710;28;20025;-69
2022/04/22 06:28:12;;;;;;;18.40;16.43;;;10.50;99.90;;;;;;4990309;28;20110;-69
2022/04/22 06:30:40;;;;;;;19.03;14.83;;;10.60;99.90;;;;;;4990883;28;20105;-69
2022/04/22 06:33:07;;;;;;;18.67;15.37;;;10.70;99.90;;;;;;4990327;28;20033;-69
2022/04/22 06:35:33;;;;;;;18.73;15.45;;;;;;;;;;4990325;28;20038;-68
2022/04/22 06:38:01;;;;;;;17.63;15.10;;;10.60;99.90;;;;;;4990315;28;20054;-68
2022/04/22 06:45:56;;;;;;;18.13;15.02;;;10.80;99.90;;;;;;4974354;28;20093;-69
2022/04/22 06:48:30;;;;;;;20.85;17.38;;;10.70;99.90;;;;;;4974141;28;20402;-69
2022/04/22 06:50:57;;;;;;;17.83;15.50;;;10.80;99.90;;;;;;4973856;28;20498;-70
2022/04/22 06:53:23;;;;;;;19.05;15.68;;;11.00;99.90;;;;;;4973438;28;20032;-70
2022/04/22 06:55:50;;;;;;;20.13;17.98;;;11.00;99.90;;;;;;4973069;28;20047;-70
2022/04/22 06:58:17;;;;;;;24.75;17.55;;;11.00;99.90;;;;;;4973521;28;20043;-70
2022/04/22 07:00:43;;;;;;;20.92;15.93;;;11.00;99.90;;;;;;4973948;28;20027;-70
2022/04/22 07:03:10;;;;;;;21.23;18.13;;;11.10;99.90;;;;;;4973638;28;20110;-70
2022/04/22 07:05:38;;;;;;;20.35;17.13;;;11.10;99.90;;;;;;4973315;28;20030;-69
2022/04/22 07:08:06;;;;;;;19.65;15.98;;;11.10;99.90;;;;;;4988843;28;20502;-70
2022/04/22 07:10:35;;;;;;;19.65;15.25;;;11.10;99.90;;;;;;4991862;28;20034;-71
2022/04/22 07:13:01;;;;;;;21.45;15.35;;;11.30;99.90;;;;;;4992535;28;20029;-70
2022/04/22 07:15:28;;;;;;;20.33;18.10;;;11.30;99.90;;;;;;4989079;28;20073;-69
2022/04/22 07:17:54;;;;;;;20.67;16.50;;;11.20;99.90;;;;;;4990305;28;20476;-70
2022/04/22 07:20:21;;;;;;;19.80;16.20;;;11.30;99.90;;;;;;4985243;28;20042;-70
2022/04/22 07:22:47;;;;;;;19.83;17.40;;;11.10;99.90;;;;;;4972941;28;20034;-68
2022/04/22 07:25:14;;;;;;;21.63;17.58;;;11.40;99.90;;;;;;4971929;28;20498;-69
2022/04/22 07:27:42;;;;;;;21.33;15.70;;;11.70;99.90;;;;;;4973347;28;20528;-69
2022/04/22 07:30:10;;;;;;;23.10;16.50;;;11.40;99.90;;;;;;4987100;28;20421;-69
2022/04/22 07:32:37;;;;;;;18.98;14.82;;;11.60;99.90;;;;;;4991102;28;20121;-69
2022/04/22 07:35:05;;;;;;;22.10;15.48;;;11.60;99.90;;;;;;4990366;28;20031;-69
2022/04/22 07:37:31;;;;;;;21.10;16.67;;;11.60;99.90;;;;;;4973143;28;20134;-69
2022/04/22 07:39:57;;;;;;;18.92;15.77;;;11.70;99.90;;;;;;4987731;28;20585;-68
2022/04/22 07:42:22;;;;;;;18.42;15.40;;;11.60;99.90;;;;;;4992562;28;20027;-68
2022/04/22 07:47:34;;;;;;;18.40;15.70;;;11.80;99.90;;;;;;4990353;28;20074;-69
2022/04/22 07:50:05;;;;;;;18.13;15.00;;;12.30;99.90;;;;;;4988849;28;20026;-68
2022/04/22 07:52:34;;;;;;;20.77;16.00;;;12.20;99.90;;;;;;4990288;28;20471;-69
2022/04/22 07:55:01;;;;;;;18.55;15.23;;;12.30;99.90;;;;;;4991095;28;20042;-69
2022/04/22 07:57:27;;;;;;;18.00;15.27;;;12.40;99.90;;;;;;4991207;28;20081;-68
2022/04/22 07:59:53;;;;;;;19.27;14.57;;;12.50;99.90;;;;;;4992995;28;20076;-69
2022/04/22 08:02:19;;;;;;;18.38;14.00;;;12.70;99.90;;;;;;4988699;28;20113;-69
2022/04/22 08:04:44;;;;;;;18.05;15.05;;;12.80;99.90;;;;;;4992854;28;20054;-69
2022/04/22 08:07:10;;;;;;;17.88;14.80;;;12.90;99.90;;;;;;4991719;28;20455;-68
2022/04/22 08:09:36;;;;;;;16.63;13.80;;;12.90;99.90;;;;;;4993056;28;20030;-69
2022/04/22 08:12:01;;;;;;;18.58;13.80;;;13.10;99.90;;;;;;4992357;28;20034;-69
2022/04/22 08:14:27;;;;;;;18.67;13.75;;;13.20;99.90;;;;;;4975500;28;20388;-69
2022/04/22 08:16:55;;;;;;;17.13;13.75;;;13.10;99.90;;;;;;4972870;28;20476;-69
2022/04/22 08:19:21;;;;;;;16.40;12.00;;;13.60;99.90;;;;;;4973266;28;20117;-68
2022/04/22 08:21:47;;;;;;;17.88;14.18;;;13.80;99.90;;;;;;4988315;28;20095;-68
2022/04/22 08:24:12;;;;;;;18.05;13.30;;;13.80;99.70;;;;;;4989329;28;20436;-67
2022/04/22 08:26:38;;;;;;;20.85;14.38;;;13.80;99.20;;;;;;4992600;28;20030;-67
2022/04/22 08:29:04;;;;;;;16.27;13.15;;;13.80;99.00;;;;;;4974629;28;20448;-67
2022/04/22 08:31:29;;;;;;;18.25;14.25;;;13.60;98.90;;;;;;4973352;28;20448;-67
2022/04/22 08:33:58;;;;;;;17.60;13.45;;;13.50;99.00;;;;;;4992321;28;20062;-68
2022/04/22 08:36:26;;;;;;;14.52;11.63;;;13.40;98.70;;;;;;4988557;28;20042;-68
2022/04/22 08:38:52;;;;;;;19.48;14.23;;;13.30;99.80;;;;;;4989542;28;20121;-68
2022/04/22 08:41:21;;;;;;;20.80;14.10;;;13.60;99.60;;;;;;4976095;28;20548;-67
2022/04/22 08:43:47;;;;;;;16.77;13.82;;;13.40;99.90;;;;;;4973643;28;20470;-68
2022/04/22 08:51:44;;;;;;;14.95;13.38;;;13.70;98.90;;;;;;4985358;28;20409;-69
2022/04/22 08:54:12;;;;;;;13.27;11.38;;;13.80;99.20;;;;;;4991507;28;20023;-69
2022/04/22 08:56:39;;;;;;;14.02;11.18;;;14.00;98.80;;;;;;4991543;28;20338;-69
2022/04/22 08:59:04;;;;;;;14.35;11.85;;;14.20;98.50;;;;;;4988831;28;20022;-69
2022/04/22 09:01:30;;;;;;;14.60;11.23;;;14.20;98.10;;;;;;4992160;28;20034;-70
2022/04/22 09:03:56;;;;;;;13.25;10.60;;;14.30;98.00;;;;;;4991187;28;20395;-71
2022/04/22 09:06:23;;;;;;;15.23;11.25;;;14.50;97.10;;;;;;4975413;28;20423;-71
2022/04/22 09:08:50;;;;;;;17.02;12.30;;;14.40;97.10;;;;;;4991895;28;20037;-70
2022/04/22 09:11:16;;;;;;;13.88;9.95;;;14.20;97.30;;;;;;4991685;28;20376;-68
2022/04/22 09:13:41;;;;;;;17.20;11.52;;;14.10;97.30;;;;;;4991789;28;20038;-71
2022/04/22 09:16:08;;;;;;;16.52;12.55;;;14.20;97.10;;;;;;4991251;28;20482;-68
2022/04/22 09:18:37;;;;;;;13.43;11.32;;;14.10;96.80;;;;;;4973607;28;20039;-68
2022/04/22 09:21:06;;;;;;;11.38;10.20;;;14.10;97.00;;;;;;4971194;28;20058;-68
2022/04/22 09:23:34;;;;;;;13.80;10.95;;;14.10;97.20;;;;;;4972086;28;20034;-68
2022/04/22 09:26:02;;;;;;;14.75;10.50;;;14.00;97.10;;;;;;4978625;28;20030;-69
2022/04/22 09:28:27;;;;;;;15.15;11.43;;;14.00;97.00;;;;;;4991024;28;20022;-70
2022/04/22 09:30:57;;;;;;;15.35;10.95;;;14.10;96.80;;;;;;4990065;28;20195;-68
2022/04/22 09:33:23;;;;;;;14.25;11.18;;;14.40;97.30;;;;;;4987883;28;20034;-68
2022/04/22 09:44:24;;;;;;;16.08;9.63;;;14.20;95.50;;;;;;4988805;28;20058;-68
2022/04/22 09:47:10;;;;;;;14.43;9.52;;;14.40;96.30;;;;;;4990423;28;20034;-69
2022/04/22 09:49:40;;;;;;;15.00;8.38;;;14.50;96.00;;;;;;4990666;28;20357;-69
2022/04/22 09:52:06;;;;;;;16.25;9.40;;;14.60;96.00;;;;;;4990610;28;20498;-69
2022/04/22 09:54:32;;;;;;;12.45;9.38;;;14.70;95.50;;;;;;4980768;28;20046;-69
2022/04/22 09:56:58;;;;;;;11.18;9.27;;;14.80;95.00;;;;;;4974193;28;20034;-69
2022/04/22 09:59:25;;;;;;;11.65;9.07;;;14.80;95.00;;;;;;4974753;28;20037;-69
2022/04/22 10:01:52;;;;;;;14.40;8.95;;;14.80;95.00;;;;;;4988180;28;20037;-71
2022/04/22 10:04:18;;;;;;;11.32;8.02;;;14.90;94.90;;;;;;4988906;28;20039;-69
2022/04/22 10:06:45;;;;;;;11.32;8.18;;;15.00;94.80;;;;;;4990275;28;20042;-68
2022/04/22 10:09:14;;;;;;;10.27;7.93;;;15.00;94.80;;;;;;4988761;28;20030;-68
2022/04/22 10:11:40;;;;;;;11.15;9.90;;;16.10;94.90;;;;;;4990715;28;20034;-69
2022/04/22 10:14:11;;;;;;;13.20;8.93;;;15.20;94.50;;;;;;4990561;28;20573;-68
2022/04/22 10:16:38;;;;;;;12.95;9.63;;;15.20;93.90;;;;;;4990220;28;20125;-68
2022/04/22 10:19:05;;;;;;;9.57;8.45;;;15.20;93.90;;;;;;4990073;28;20030;-69
2022/04/22 10:21:32;;;;;;;8.63;7.82;;;;;;;;;;4989446;28;20392;-68
2022/04/22 10:23:58;;;;;;;9.07;6.97;;;15.50;93.00;;;;;;4988804;28;20034;-68
2022/04/22 10:26:25;;;;;;;9.40;7.72;;;15.60;93.80;;;;;;4990090;28;20033;-68
2022/04/22 10:28:53;;;;;;;10.95;7.50;;;15.70;93.60;;;;;;4990837;28;20076;-68
2022/04/22 10:31:20;;;;;;;9.77;7.30;;;15.90;93.70;;;;;;4989744;28;20026;-69
2022/04/22 10:33:46;;;;;;;16.00;8.15;;;15.90;93.10;;;;;;4989904;28;20030;-69
2022/04/22 10:36:16;;;;;;;8.93;6.78;;;15.90;92.80;;;;;;4990250;28;20030;-69
2022/04/22 10:38:45;;;;;;;10.65;7.25;;;15.80;93.10;;;;;;4990501;28;20113;-68
2022/04/22 10:41:20;;;;;;;10.55;8.32;;;16.00;92.60;;;;;;4989620;28;20032;-68
2022/04/22 10:49:39;;;;;;;10.93;7.72;;;16.00;91.40;;;;;;4971534;28;20114;-68
2022/04/22 10:52:10;;;;;;;9.10;6.88;;;16.00;91.70;;;;;;4970625;28;20063;-69
2022/04/22 10:54:58;;;;;;;7.75;6.88;;;15.80;91.60;;;;;;4977975;28;20025;-67
2022/04/22 10:57:33;;;;;;;7.55;6.22;;;16.10;91.30;;;;;;4988897;28;20062;-69
2022/04/22 11:00:09;;;;;;;9.18;7.68;;;16.10;91.40;;;;;;4984353;28;20046;-67
2022/04/22 11:02:37;;;;;;;7.93;6.68;;;16.10;91.40;;;;;;4970713;28;20027;-67
2022/04/22 11:07:56;;;;;;;8.45;6.85;;;16.20;91.50;;;;;;4990557;28;20053;-67
2022/04/22 11:10:49;;;;;;;7.10;5.72;;;16.20;91.00;;;;;;4990223;28;20476;-67
2022/04/22 11:13:38;;;;;;;7.80;6.93;;;16.40;90.80;;;;;;4973708;28;20542;-67
2022/04/22 11:16:36;;;;;;;10.02;5.90;;;16.50;88.10;;;;;;4969727;28;20023;-67
2022/04/22 11:19:18;;;;;;;13.10;6.75;;;16.40;89.70;;;;;;4947313;28;20041;-67
2022/04/22 11:21:44;;;;;;;9.15;5.57;;;16.40;87.00;;;;;;4970439;28;20054;-67
2022/04/22 11:24:15;;;;;;;8.60;5.45;;;16.50;87.90;;;;;;4970635;28;20019;-67
2022/04/22 11:26:42;;;;;;;7.53;6.60;;;16.50;88.60;;;;;;4972033;28;20043;-68
2022/04/22 11:29:10;;;;;;;6.25;4.63;;;16.30;88.20;;;;;;4976584;28;20035;-67
2022/04/22 11:31:36;;;;;;;7.05;5.07;;;16.30;88.80;;;;;;4973997;28;20050;-68
2022/04/22 11:34:12;;;;;;;5.88;4.75;;;16.60;88.70;;;;;;4974038;28;20019;-68
2022/04/22 11:36:48;;;;;;;8.38;5.78;;;16.70;86.60;;;;;;4974464;28;20038;-68
2022/04/22 11:39:22;;;;;;;8.35;5.38;;;16.80;87.40;;;;;;4973721;28;20054;-68
2022/04/22 11:41:57;;;;;;;6.60;5.28;;;16.90;86.20;;;;;;4974295;28;20110;-68
2022/04/22 11:44:27;;;;;;;8.30;5.18;;;17.00;84.20;;;;;;4973714;28;20034;-68
2022/04/22 11:46:53;;;;;;;6.80;4.68;;;17.00;82.70;;;;;;4975963;28;20031;-68
2022/04/22 11:49:19;;;;;;;7.05;5.32;;;16.90;81.70;;;;;;4992786;28;20061;-68
2022/04/22 11:51:45;;;;;;;6.45;4.30;;;16.90;82.60;;;;;;5008390;28;20459;-68
2022/04/22 11:54:10;;;;;;;6.53;5.10;;;16.90;82.20;;;;;;4992972;28;20076;-68
2022/04/22 11:56:36;;;;;;;12.13;5.15;;;16.80;79.50;;;;;;4993448;28;20376;-68
2022/04/22 11:59:02;;;;;;;8.85;4.25;;;16.90;79.50;;;;;;4992443;28;20486;-68
2022/04/22 12:10:00;;;;;;;7.07;4.63;;;17.00;80.90;;;;;;4993034;28;20061;-68
2022/04/22 12:12:28;;;;;;;5.90;3.85;;;17.00;78.40;;;;;;4992855;28;20084;-68
2022/04/22 12:15:05;;;;;;;5.93;4.20;;;16.70;79.70;;;;;;4992508;28;20486;-68
2022/04/22 12:17:31;;;;;;;7.35;3.40;;;17.00;79.40;;;;;;4992780;28;20093;-68
2022/04/22 12:19:57;;;;;;;6.22;4.85;;;17.00;79.10;;;;;;4992602;28;20506;-68
2022/04/22 12:22:23;;;;;;;6.25;5.35;;;17.00;78.90;;;;;;4991070;28;20035;-68
2022/04/22 12:25:14;;;;;;;5.72;5.05;;;17.00;78.50;;;;;;4992349;28;20036;-69
2022/04/22 12:27:42;;;;;;;5.80;5.15;;;17.20;78.10;;;;;;4992626;28;20026;-70
2022/04/22 12:30:10;;;;;;;7.07;4.93;;;17.00;78.80;;;;;;4991706;28;20041;-68
2022/04/22 12:32:37;;;;;;;6.93;5.03;;;17.10;79.20;;;;;;4992440;28;20026;-68
2022/04/22 12:35:17;;;;;;;7.72;4.82;;;17.10;78.80;;;;;;4992130;28;20479;-68
2022/04/22 12:37:51;;;;;;;7.95;5.25;;;17.00;80.30;;;;;;4977509;28;20090;-68
2022/04/22 12:40:21;;;;;;;6.45;4.32;;;16.90;78.40;;;;;;4984363;28;20026;-68
2022/04/22 12:42:47;;;;;;;7.10;5.50;;;16.90;80.70;;;;;;4972791;28;20190;-68
2022/04/22 12:53:50;;;;;;;9.43;5.10;;;17.10;77.50;;;;;;4990763;28;20034;-68
2022/04/22 12:56:16;;;;;;;6.40;5.78;;;17.20;79.20;;;;;;4989890;28;20250;-68
2022/04/22 12:58:52;;;;;;;7.72;4.95;;;17.20;78.70;;;;;;4990866;28;20100;-68
2022/04/22 13:01:28;;;;;;;6.32;5.60;;;17.50;78.60;;;;;;4991087;28;20026;-68
2022/04/22 13:03:55;;;;;;;7.75;5.05;;;17.70;78.40;;;;;;4991556;28;20439;-68
2022/04/22 13:06:40;;;;;;;8.70;4.63;;;18.50;77.70;;;;;;4990082;28;20807;-68
2022/04/22 13:09:07;;;;;;;5.57;4.57;;;18.20;78.20;;;;;;4989469;28;20422;-68
2022/04/22 13:11:36;;;;;;;6.72;5.60;;;18.20;75.40;;;;;;4991150;28;20038;-70
2022/04/22 13:14:03;;;;;;;6.38;5.30;;;18.20;72.80;;;;;;4990475;28;20510;-68
2022/04/22 13:16:28;;;;;;;7.32;4.65;;;18.20;73.60;;;;;;4991613;28;20030;-69
2022/04/22 13:18:58;;;;;;;9.07;5.97;;;18.10;73.80;;;;;;4991644;28;20041;-68
2022/04/22 13:21:25;;;;;;;6.15;4.32;;;17.40;71.80;;;;;;4991434;28;20078;-68
2022/04/22 13:23:50;;;;;;;11.35;4.68;;;18.40;73.20;;;;;;4991783;28;20034;-68
2022/04/22 13:26:17;;;;;;;8.88;4.10;;;18.20;72.40;;;;;;4990833;28;20034;-68
2022/04/22 13:28:43;;;;;;;5.45;3.85;;;17.90;72.80;;;;;;4991835;28;20035;-68
2022/04/22 13:31:08;;;;;;;8.27;4.47;;;17.80;73.90;;;;;;4991139;28;20057;-68
2022/04/22 13:33:34;;;;;;;5.63;5.00;;;17.70;73.80;;;;;;4975473;28;20484;-68
2022/04/22 13:36:04;;;;;;;4.97;4.28;;;17.40;74.40;;;;;;4971695;28;20034;-68
2022/04/22 13:38:32;;;;;;;6.70;4.80;;;17.50;74.60;;;;;;4987815;28;20080;-68
2022/04/22 13:40:58;;;;;;;6.82;4.15;;;17.50;74.50;;;;;;4988638;28;20441;-69
2022/04/22 13:43:26;;;;;;;5.43;4.70;;;17.60;74.70;;;;;;4990875;28;20038;-69
2022/04/22 13:54:04;;;;;;;5.78;3.63;;;18.20;72.60;;;;;;4990221;28;19964;-69
2022/04/22 13:56:30;;;;;;;5.38;4.57;;;18.20;72.60;;;;;;4989410;28;20058;-69
2022/04/22 13:58:55;;;;;;;7.10;4.55;;;18.40;72.90;;;;;;4988866;28;20088;-69
2022/04/22 14:01:21;;;;;;;9.65;4.28;;;18.60;71.90;;;;;;4988743;28;20098;-69
2022/04/22 14:03:46;;;;;;;6.88;4.47;;;18.50;71.70;;;;;;4990316;28;20372;-69
2022/04/22 14:06:12;;;;;;;9.77;5.45;;;18.40;70.70;;;;;;4989756;28;20095;-69
2022/04/22 14:08:37;;;;;;;12.98;5.38;;;18.30;70.80;;;;;;4988042;28;20133;-68
2022/04/22 14:11:03;;;;;;;7.00;4.95;;;18.20;71.40;;;;;;4989516;28;20019;-69
2022/04/22 14:13:31;;;;;;;7.75;4.85;;;18.00;71.80;;;;;;4990914;28;20030;-69
2022/04/22 14:15:56;;;;;;;11.63;4.88;;;18.00;71.90;;;;;;4981737;28;20023;-69
2022/04/22 14:18:22;;;;;;;9.85;5.43;;;17.70;71.70;;;;;;4987284;28;20243;-69